Time;durP1;ratioP1;P1;durP2;ratioP2;P2;SDS_P1;SDS_P2;PMS_P1;PMS_P2;Temp;Humidity;BMP_temperature;BMP_pressure;BME280_temperature;BME280_humidity;BME280_pressure;Samples;Min_cycle;Max_cycle;Signal;HPM_P1;HPM_P2
2024/03/31 00:02:17;;;;;;;25.50;4.70;;;;;;;14.35;61.40;97566.25;227337;1270;22540;-76
2024/03/31 00:07:20;;;;;;;24.90;4.90;;;;;;;14.49;61.13;97557.13;227087;1272;22540;-77
2024/03/31 00:12:22;;;;;;;25.70;4.80;;;;;;;14.58;60.98;97550.30;227111;1270;22771;-76
2024/03/31 00:17:25;;;;;;;21.60;4.80;;;;;;;14.70;60.64;97541.91;227307;1269;22617;-76
2024/03/31 00:22:27;;;;;;;22.20;4.20;;;;;;;14.83;60.54;97531.61;227089;1270;22612;-76
2024/03/31 00:27:29;;;;;;;30.00;4.20;;;;;;;14.89;60.12;97521.74;227321;1264;22720;-76
2024/03/31 00:32:31;;;;;;;21.80;3.90;;;;;;;14.93;60.00;97517.88;227118;1272;22555;-76
2024/03/31 00:37:33;;;;;;;33.00;5.00;;;;;;;14.98;59.76;97516.34;227356;1270;22629;-77
2024/03/31 00:42:34;;;;;;;21.40;4.30;;;;;;;14.99;59.83;97516.27;227343;1269;22542;-77
2024/03/31 00:47:36;;;;;;;23.50;4.50;;;;;;;15.03;59.74;97520.48;227345;1272;23661;-76
2024/03/31 00:52:38;;;;;;;24.30;4.70;;;;;;;15.01;59.58;97517.70;227089;1270;22562;-76
2024/03/31 00:57:40;;;;;;;24.60;4.50;;;;;;;14.96;59.60;97517.48;227094;1269;22539;-76
2024/03/31 01:02:43;;;;;;;26.50;5.60;;;;;;;14.88;59.70;97518.17;227360;1270;22555;-76
2024/03/31 01:07:45;;;;;;;24.10;4.40;;;;;;;14.76;59.81;97514.14;227338;1269;22615;-76
2024/03/31 01:12:47;;;;;;;22.90;4.40;;;;;;;14.64;59.70;97505.94;227310;1270;22608;-77
2024/03/31 01:17:52;;;;;;;19.50;3.90;;;;;;;14.47;59.97;97498.41;226986;1270;157017;-76
2024/03/31 01:22:54;;;;;;;23.00;4.50;;;;;;;14.28;60.19;97495.25;227076;1270;22541;-76
2024/03/31 01:27:56;;;;;;;18.10;4.20;;;;;;;14.10;60.25;97496.66;227215;1271;22534;-76
2024/03/31 01:32:59;;;;;;;20.90;4.50;;;;;;;13.96;60.52;97492.17;227160;1248;22547;-76
2024/03/31 01:38:01;;;;;;;21.00;4.30;;;;;;;13.88;60.71;97485.95;227169;1272;24897;-77
2024/03/31 01:43:03;;;;;;;23.70;4.80;;;;;;;13.82;60.65;97476.13;227130;1270;22542;-76
2024/03/31 01:48:05;;;;;;;25.90;5.00;;;;;;;13.75;60.98;97472.31;227252;1271;22539;-77
2024/03/31 01:53:07;;;;;;;22.00;4.10;;;;;;;13.70;60.99;97470.36;227166;1272;23251;-76
2024/03/31 01:58:09;;;;;;;24.00;3.50;;;;;;;13.72;61.20;97461.96;227140;1266;22604;-76
2024/03/31 02:03:11;;;;;;;17.70;4.00;;;;;;;13.82;61.11;97464.08;227221;1272;22532;-77
2024/03/31 02:08:12;;;;;;;15.80;3.50;;;;;;;13.91;61.07;97458.23;227147;1269;22540;-77
2024/03/31 02:13:14;;;;;;;18.10;3.70;;;;;;;13.98;60.97;97451.00;227324;1270;22543;-75
2024/03/31 02:18:16;;;;;;;20.40;3.10;;;;;;;14.04;60.83;97449.90;227163;1270;22531;-76
2024/03/31 02:23:18;;;;;;;14.20;3.30;;;;;;;14.09;60.75;97453.67;227224;1272;22522;-76
2024/03/31 02:28:20;;;;;;;13.10;2.90;;;;;;;14.13;60.48;97453.83;227088;1270;22526;-77
2024/03/31 02:33:26;;;;;;;13.60;2.60;;;;;;;14.18;60.49;97456.30;227307;1269;22543;-77
2024/03/31 02:38:28;;;;;;;15.90;2.70;;;;;;;14.22;60.52;97464.40;227119;1270;22526;-75
2024/03/31 02:43:31;;;;;;;16.20;2.80;;;;;;;14.28;60.28;97465.54;227083;1272;22571;-76
2024/03/31 02:48:32;;;;;;;9.60;2.00;;;;;;;14.35;60.28;97462.73;227081;1270;22539;-76
2024/03/31 02:53:34;;;;;;;13.00;2.40;;;;;;;14.42;60.01;97464.63;227038;1272;22525;-75
2024/03/31 02:58:36;;;;;;;12.70;2.60;;;;;;;14.49;60.11;97465.40;227109;1270;22536;-76
2024/03/31 03:03:38;;;;;;;16.80;2.80;;;;;;;14.59;60.05;97460.14;227347;1270;22532;-76
2024/03/31 03:08:40;;;;;;;13.40;3.00;;;;;;;14.65;59.85;97454.07;227123;1263;22555;-76
2024/03/31 03:13:45;;;;;;;10.10;2.70;;;;;;;14.64;59.66;97449.38;227167;1272;22554;-75
2024/03/31 03:18:50;;;;;;;13.60;2.60;;;;;;;14.59;59.67;97447.13;227327;1270;22929;-76
2024/03/31 03:23:52;;;;;;;16.90;3.00;;;;;;;14.56;59.66;97443.36;227062;1272;22551;-77
2024/03/31 03:28:54;;;;;;;14.90;3.00;;;;;;;14.55;59.64;97450.69;227088;1269;22559;-76
2024/03/31 03:33:56;;;;;;;15.10;2.50;;;;;;;14.55;59.76;97449.46;227045;1270;22650;-77
2024/03/31 03:38:58;;;;;;;14.90;2.80;;;;;;;14.60;59.75;97452.45;227275;1266;22531;-77
2024/03/31 03:44:03;;;;;;;8.30;2.30;;;;;;;14.66;59.61;97457.85;227306;1272;22551;-75
2024/03/31 03:49:06;;;;;;;7.90;2.40;;;;;;;14.68;59.50;97449.12;227123;1248;22541;-76
2024/03/31 03:54:08;;;;;;;13.30;3.00;;;;;;;14.70;59.55;97452.52;227071;1271;22540;-76
2024/03/31 03:59:13;;;;;;;11.80;2.50;;;;;;;14.73;59.58;97453.52;227330;1267;22531;-76
2024/03/31 04:04:15;;;;;;;10.00;2.50;;;;;;;14.75;59.31;97452.54;227181;1271;22530;-76
2024/03/31 04:09:17;;;;;;;14.90;2.50;;;;;;;14.76;59.46;97451.38;227272;1270;22538;-77
2024/03/31 04:14:19;;;;;;;13.30;2.90;;;;;;;14.74;59.39;97451.04;227159;1270;22544;-76
2024/03/31 04:19:21;;;;;;;11.00;2.70;;;;;;;14.73;59.46;97453.20;227068;1269;24209;-77
2024/03/31 04:24:23;;;;;;;15.60;3.20;;;;;;;14.72;59.35;97445.58;227184;1272;22540;-76
2024/03/31 04:29:25;;;;;;;19.90;3.50;;;;;;;14.68;59.32;97443.20;227083;1270;22554;-77
2024/03/31 04:34:30;;;;;;;14.50;2.50;;;;;;;14.67;59.44;97450.05;227336;1270;22540;-74
2024/03/31 04:39:33;;;;;;;10.10;2.90;;;;;;;14.63;59.37;97453.24;227057;1269;22542;-76
2024/03/31 04:44:35;;;;;;;8.10;2.20;;;;;;;14.58;59.48;97449.56;227109;1272;22654;-76
2024/03/31 04:49:42;;;;;;;9.30;3.10;;;;;;;14.59;59.48;97450.73;227086;1270;22543;-77
2024/03/31 04:54:44;;;;;;;12.20;2.80;;;;;;;14.62;59.41;97449.30;227390;1270;22535;-76
2024/03/31 04:59:46;;;;;;;11.30;3.50;;;;;;;14.67;59.65;97450.27;227079;1269;22535;-77
2024/03/31 05:04:48;;;;;;;12.30;3.10;;;;;;;14.70;59.66;97442.36;227207;1272;22593;-77
2024/03/31 05:09:50;;;;;;;15.70;2.40;;;;;;;14.75;59.64;97440.80;227320;1270;22545;-76
2024/03/31 05:14:52;;;;;;;9.30;2.00;;;;;;;14.85;59.53;97438.98;227097;1256;22559;-77
2024/03/31 05:19:54;;;;;;;10.50;3.70;;;;;;;15.02;59.43;97438.44;227049;1272;22539;-76
2024/03/31 05:24:56;;;;;;;9.30;2.20;;;;;;;15.19;59.36;97436.23;227127;1269;22543;-76
2024/03/31 05:29:58;;;;;;;11.60;2.70;;;;;;;15.33;59.02;97433.88;227119;1272;22566;-76
2024/03/31 05:34:59;;;;;;;9.30;2.30;;;;;;;15.52;58.96;97432.63;227107;1270;22552;-76
2024/03/31 05:40:01;;;;;;;5.20;2.40;;;;;;;15.75;58.84;97434.77;227237;1272;23463;-77
2024/03/31 05:45:05;;;;;;;13.40;2.40;;;;;;;15.98;58.54;97433.19;227294;1272;22535;-77
2024/03/31 05:50:07;;;;;;;10.80;2.60;;;;;;;16.23;58.16;97429.67;227348;1267;22681;-76
2024/03/31 05:55:10;;;;;;;16.00;2.60;;;;;;;16.48;57.92;97432.38;227121;1272;25308;-77
2024/03/31 06:00:12;;;;;;;10.70;2.30;;;;;;;16.70;57.57;97442.22;227217;1266;25243;-76
2024/03/31 06:05:17;;;;;;;12.60;2.80;;;;;;;16.91;57.14;97430.89;227166;1272;22574;-77
2024/03/31 06:10:20;;;;;;;12.60;2.80;;;;;;;17.13;56.70;97432.35;227332;1272;22849;-77
2024/03/31 06:15:22;;;;;;;12.80;2.70;;;;;;;17.31;56.26;97429.63;227024;1271;22552;-76
2024/03/31 06:20:25;;;;;;;13.50;3.00;;;;;;;17.47;55.93;97413.84;227296;1270;23384;-77
2024/03/31 06:25:27;;;;;;;15.20;2.70;;;;;;;17.62;55.45;97408.58;227314;1269;22654;-77
2024/03/31 06:30:29;;;;;;;14.90;3.50;;;;;;;17.76;55.15;97406.57;227287;1268;22530;-77
2024/03/31 06:35:32;;;;;;;10.40;3.20;;;;;;;17.90;54.88;97407.45;227285;1269;22534;-77
2024/03/31 06:40:35;;;;;;;9.90;2.70;;;;;;;18.06;54.41;97401.99;227103;1263;22535;-76
2024/03/31 06:45:38;;;;;;;9.30;2.70;;;;;;;18.31;54.14;97399.80;227400;1271;22693;-76
2024/03/31 06:50:40;;;;;;;14.30;2.50;;;;;;;18.62;53.50;97398.55;227076;1272;22545;-76
2024/03/31 06:55:43;;;;;;;8.60;2.30;;;;;;;18.99;53.08;97407.12;227111;1272;23863;-77
2024/03/31 07:00:45;;;;;;;13.50;2.20;;;;;;;19.38;52.80;97411.72;227250;1270;22685;-77
2024/03/31 07:05:47;;;;;;;17.20;4.50;;;;;;;19.59;51.82;97417.60;227360;1253;22552;-77
2024/03/31 07:10:49;;;;;;;13.40;2.50;;;;;;;19.59;51.38;97407.20;227345;1270;22533;-76
2024/03/31 07:15:51;;;;;;;11.50;2.80;;;;;;;19.50;51.02;97406.62;227229;1272;24210;-77
2024/03/31 07:20:53;;;;;;;13.60;2.90;;;;;;;19.49;51.08;97412.23;227099;1272;22638;-77
2024/03/31 07:25:57;;;;;;;13.20;2.60;;;;;;;19.66;51.08;97419.26;227197;1272;22550;-77
2024/03/31 07:30:59;;;;;;;13.20;2.50;;;;;;;19.90;50.77;97413.70;227165;1272;22529;-76
2024/03/31 07:36:01;;;;;;;13.60;3.20;;;;;;;20.15;50.25;97392.83;227137;1270;22546;-76
2024/03/31 07:41:03;;;;;;;14.30;4.30;;;;;;;20.35;49.95;97387.12;227412;1268;22545;-78
2024/03/31 07:46:05;;;;;;;16.00;2.60;;;;;;;20.48;49.38;97388.11;227362;1272;22553;-76
2024/03/31 07:51:07;;;;;;;11.20;2.30;;;;;;;20.56;49.01;97388.77;227163;1269;25418;-76
2024/03/31 07:56:09;;;;;;;14.40;3.00;;;;;;;20.68;48.57;97394.31;227323;1272;22536;-77
2024/03/31 08:01:11;;;;;;;20.00;7.80;;;;;;;20.81;47.83;97385.89;227361;1272;22561;-78
2024/03/31 08:06:12;;;;;;;14.70;2.80;;;;;;;20.93;47.54;97382.36;227342;1271;22547;-78
2024/03/31 08:11:14;;;;;;;11.60;3.10;;;;;;;21.04;47.33;97360.63;227200;1272;22528;-77
2024/03/31 08:16:18;;;;;;;15.50;3.80;;;;;;;21.18;47.06;97360.96;227098;1272;22542;-77
2024/03/31 08:21:20;;;;;;;16.10;2.90;;;;;;;21.28;46.53;97359.10;227241;1272;25356;-76
2024/03/31 08:26:22;;;;;;;11.80;2.60;;;;;;;21.34;46.18;97346.45;227304;1272;22539;-77
2024/03/31 08:31:23;;;;;;;12.90;2.50;;;;;;;21.37;46.08;97331.82;227327;1270;22557;-77
2024/03/31 08:36:25;;;;;;;19.20;3.50;;;;;;;21.38;45.79;97329.05;227086;1267;22566;-77
2024/03/31 08:41:50;;;;;;;15.10;3.70;;;;;;;21.45;45.54;97341.05;227298;1267;25284;-77
2024/03/31 08:46:56;;;;;;;16.70;3.40;;;;;;;21.63;45.61;97352.20;227078;1270;22541;-75
2024/03/31 08:51:58;;;;;;;20.10;3.30;;;;;;;21.84;45.28;97364.33;227123;1267;25253;-77
2024/03/31 08:57:00;;;;;;;17.30;3.30;;;;;;;21.89;44.56;97372.22;227404;1267;22539;-77
2024/03/31 09:02:02;;;;;;;21.50;4.10;;;;;;;21.86;44.30;97377.91;227067;1270;22664;-77
2024/03/31 09:07:04;;;;;;;23.60;4.40;;;;;;;21.93;44.50;97375.85;227103;1270;22528;-78
2024/03/31 09:12:07;;;;;;;22.60;4.20;;;;;;;22.06;44.61;97380.88;227389;1270;22535;-77
2024/03/31 09:17:10;;;;;;;23.10;4.20;;;;;;;22.22;44.86;97383.86;227418;1267;22536;-77
2024/03/31 09:22:15;;;;;;;23.70;3.80;;;;;;;22.39;44.42;97379.61;227111;1267;22538;-79
2024/03/31 09:27:17;;;;;;;22.80;4.40;;;;;;;22.47;44.21;97381.00;227057;1267;22545;-78
2024/03/31 09:32:19;;;;;;;22.90;4.50;;;;;;;22.55;44.15;97378.02;227112;1267;22542;-78
2024/03/31 09:37:22;;;;;;;20.30;4.70;;;;;;;22.61;43.97;97377.45;227357;1270;22541;-77
2024/03/31 09:42:25;;;;;;;29.90;5.10;;;;;;;22.74;44.01;97382.96;227085;1270;22533;-77
2024/03/31 09:47:41;;;;;;;23.60;4.50;;;;;;;22.87;43.68;97389.61;227376;1270;22559;-77
2024/03/31 09:52:43;;;;;;;26.70;5.00;;;;;;;22.96;43.04;97393.04;227391;1270;22591;-76
2024/03/31 09:57:50;;;;;;;32.00;5.60;;;;;;;22.96;42.78;97394.05;227284;1267;22638;-76
2024/03/31 10:02:57;;;;;;;29.80;7.00;;;;;;;22.94;41.16;97390.13;227166;1267;22531;-78
2024/03/31 10:08:01;;;;;;;33.40;6.70;;;;;;;22.82;41.03;97390.80;227126;1270;22567;-78
2024/03/31 10:13:08;;;;;;;36.90;5.70;;;;;;;22.68;41.51;97384.60;227341;1270;25382;-78
2024/03/31 10:18:12;;;;;;;30.60;6.50;;;;;;;22.52;41.20;97381.51;227152;1267;22514;-77
2024/03/31 10:23:14;;;;;;;32.30;5.60;;;;;;;22.37;41.58;97376.33;227280;1270;22628;-77
2024/03/31 10:28:17;;;;;;;27.30;6.70;;;;;;;22.47;41.57;97377.80;227136;1269;24282;-77
2024/03/31 10:33:19;;;;;;;35.30;6.20;;;;;;;22.59;40.90;97371.09;227254;1267;22537;-76
2024/03/31 10:38:44;;;;;;;35.60;7.20;;;;;;;22.66;40.98;97365.48;227335;1272;22535;-77
2024/03/31 10:43:47;;;;;;;37.40;7.10;;;;;;;22.54;40.77;97364.35;227212;1267;23573;-77
2024/03/31 10:48:56;;;;;;;33.80;6.40;;;;;;;22.45;41.44;97361.02;227275;1269;22569;-76
2024/03/31 10:53:58;;;;;;;38.70;6.80;;;;;;;22.53;42.12;97361.21;227418;1267;22559;-77
2024/03/31 10:59:05;;;;;;;42.00;8.50;;;;;;;22.66;41.90;97354.55;227163;1272;22730;-77
2024/03/31 11:04:20;;;;;;;39.00;7.50;;;;;;;22.81;41.75;97339.47;227371;1264;22598;-78
2024/03/31 11:09:22;;;;;;;38.70;7.30;;;;;;;23.02;41.46;97329.38;227367;1270;22546;-77
2024/03/31 11:14:25;;;;;;;40.00;7.10;;;;;;;23.03;40.54;97328.37;227070;1269;22539;-77
2024/03/31 11:19:28;;;;;;;44.50;7.00;;;;;;;23.02;40.09;97320.47;227355;1270;22543;-76
2024/03/31 11:24:32;;;;;;;39.80;7.40;;;;;;;23.13;40.38;97329.98;227108;1272;22541;-78
2024/03/31 11:29:35;;;;;;;50.30;8.40;;;;;;;23.20;39.97;97321.73;227199;1270;22551;-78
2024/03/31 11:34:38;;;;;;;44.00;7.50;;;;;;;23.19;39.53;97329.95;227138;1270;22561;-77
2024/03/31 11:39:40;;;;;;;46.80;7.70;;;;;;;23.16;39.58;97333.89;227140;1270;22542;-78
2024/03/31 11:44:42;;;;;;;39.50;8.00;;;;;;;23.17;39.90;97341.34;227261;1256;22565;-79
2024/03/31 11:49:44;;;;;;;47.50;8.00;;;;;;;23.30;40.49;97332.02;227373;1265;25284;-78
2024/03/31 11:54:46;;;;;;;43.60;7.90;;;;;;;23.43;39.89;97333.32;227390;1269;22755;-77
2024/03/31 11:59:55;;;;;;;38.50;6.80;;;;;;;23.34;39.37;97332.79;227125;1270;23591;-78
2024/03/31 12:04:57;;;;;;;46.10;8.60;;;;;;;23.22;39.72;97330.27;227411;1269;22542;-78
2024/03/31 12:09:59;;;;;;;48.80;9.10;;;;;;;23.17;40.20;97333.55;227199;1265;22639;-77
2024/03/31 12:15:02;;;;;;;41.50;7.80;;;;;;;23.17;39.91;97324.88;227114;1266;24332;-78
2024/03/31 12:20:08;;;;;;;39.20;8.20;;;;;;;23.20;40.10;97312.31;227204;1269;22542;-78
2024/03/31 12:25:10;;;;;;;44.60;7.90;;;;;;;23.25;40.21;97319.42;227322;1270;22547;-77
2024/03/31 12:30:12;;;;;;;36.80;7.60;;;;;;;23.23;39.95;97327.23;227184;1269;22548;-76
2024/03/31 12:35:14;;;;;;;40.40;7.70;;;;;;;23.14;39.73;97333.10;227201;1269;22560;-76
2024/03/31 12:40:19;;;;;;;43.60;7.90;;;;;;;22.93;39.22;97332.81;227100;1267;24228;-77
2024/03/31 12:45:22;;;;;;;47.30;8.20;;;;;;;22.74;38.99;97337.63;227182;1269;22538;-79
2024/03/31 12:50:24;;;;;;;39.60;7.40;;;;;;;22.66;39.39;97336.87;227117;1270;23009;-78
2024/03/31 12:55:26;;;;;;;35.50;7.50;;;;;;;22.75;39.22;97331.84;227355;1264;22546;-78
2024/03/31 13:00:28;;;;;;;37.50;8.80;;;;;;;22.87;39.59;97342.20;227400;1260;22582;-78
2024/03/31 13:05:30;;;;;;;35.70;6.30;;;;;;;22.88;39.63;97331.67;227124;1270;22639;-77
2024/03/31 13:10:33;;;;;;;31.90;6.10;;;;;;;22.85;39.76;97327.59;227439;1270;22547;-77
2024/03/31 13:15:38;;;;;;;34.20;6.90;;;;;;;22.78;39.85;97328.94;226991;1266;210360;-76
2024/03/31 13:20:40;;;;;;;33.80;6.30;;;;;;;22.83;40.55;97328.92;227221;1262;22560;-77
2024/03/31 13:25:42;;;;;;;33.90;5.60;;;;;;;23.10;40.22;97320.73;227106;1266;22561;-79
2024/03/31 13:30:45;;;;;;;28.30;5.50;;;;;;;23.36;39.64;97321.16;227099;1270;22574;-77
2024/03/31 13:35:47;;;;;;;39.90;6.70;;;;;;;23.31;38.97;97306.12;227326;1268;22545;-77
2024/03/31 13:40:49;;;;;;;44.20;8.00;;;;;;;23.11;39.85;97314.69;227228;1257;22621;-77
2024/03/31 13:45:51;;;;;;;27.40;5.40;;;;;;;22.89;40.19;97307.46;227137;1267;22595;-77
2024/03/31 13:50:53;;;;;;;30.30;7.30;;;;;;;22.75;40.70;97311.52;227081;1270;22545;-77
2024/03/31 13:55:55;;;;;;;30.40;5.90;;;;;;;22.61;40.54;97318.39;227337;1267;22545;-77
2024/03/31 14:00:57;;;;;;;31.90;5.70;;;;;;;22.44;40.81;97309.20;227137;1272;22569;-77
2024/03/31 14:05:59;;;;;;;33.00;7.10;;;;;;;22.32;40.94;97311.88;227214;1272;22551;-77
2024/03/31 14:11:00;;;;;;;29.10;6.90;;;;;;;22.23;41.01;97310.02;227115;1270;22541;-76
2024/03/31 14:16:03;;;;;;;41.70;8.00;;;;;;;22.12;41.25;97312.70;227133;1270;22646;-77
2024/03/31 14:21:04;;;;;;;31.20;6.20;;;;;;;22.00;41.47;97312.80;227354;1269;22882;-77
2024/03/31 14:26:09;;;;;;;41.00;8.10;;;;;;;21.91;41.58;97309.31;227086;1267;24337;-77
2024/03/31 14:31:11;;;;;;;44.80;7.70;;;;;;;21.82;41.84;97310.80;227049;1269;22543;-77
2024/03/31 14:36:13;;;;;;;44.30;7.00;;;;;;;21.77;42.07;97302.72;227350;1270;22551;-78
2024/03/31 14:41:14;;;;;;;42.30;6.50;;;;;;;21.72;42.06;97302.11;227278;1269;22623;-77
2024/03/31 14:46:16;;;;;;;37.60;7.40;;;;;;;21.67;42.06;97302.02;227315;1264;22535;-78
2024/03/31 14:51:18;;;;;;;40.40;7.30;;;;;;;21.68;42.55;97301.70;227092;1269;22672;-77
2024/03/31 14:56:20;;;;;;;36.90;7.40;;;;;;;21.73;42.64;97293.70;227306;1269;22557;-75
2024/03/31 15:01:22;;;;;;;46.00;9.40;;;;;;;21.77;42.85;97288.95;227388;1267;22542;-77
2024/03/31 15:06:24;;;;;;;38.60;8.00;;;;;;;21.77;42.70;97287.62;227092;1251;22586;-77
2024/03/31 15:11:26;;;;;;;36.80;7.90;;;;;;;21.73;42.59;97279.88;227099;1263;22546;-77
2024/03/31 15:16:28;;;;;;;44.80;8.00;;;;;;;21.72;42.93;97280.81;227238;1269;22824;-77
2024/03/31 15:21:30;;;;;;;43.30;8.40;;;;;;;21.69;42.75;97274.66;227283;1266;22532;-77
2024/03/31 15:26:32;;;;;;;39.80;7.80;;;;;;;21.66;42.45;97271.89;227140;1269;22542;-77
2024/03/31 15:31:34;;;;;;;35.00;7.30;;;;;;;21.63;42.34;97270.83;227160;1269;22544;-77
2024/03/31 15:36:35;;;;;;;38.60;7.20;;;;;;;21.60;42.59;97271.10;227165;1269;22554;-77
2024/03/31 15:41:37;;;;;;;45.50;9.70;;;;;;;21.56;42.48;97267.65;227224;1272;24251;-77
2024/03/31 15:46:39;;;;;;;43.60;7.60;;;;;;;21.51;42.47;97265.83;227386;1253;22535;-77
2024/03/31 15:51:41;;;;;;;45.60;7.80;;;;;;;21.45;42.67;97261.58;227263;1272;22656;-76
2024/03/31 15:56:43;;;;;;;48.00;7.60;;;;;;;21.37;42.75;97258.35;227087;1266;22539;-77
2024/03/31 16:02:00;;;;;;;46.10;7.80;;;;;;;21.25;43.00;97259.41;227363;1272;22535;-77
2024/03/31 16:07:02;;;;;;;37.50;7.90;;;;;;;21.12;43.20;97260.36;227183;1272;22544;-78
2024/03/31 16:12:04;;;;;;;40.30;7.60;;;;;;;21.01;43.35;97265.10;227172;1270;22538;-77
2024/03/31 16:17:06;;;;;;;43.10;7.60;;;;;;;20.92;43.95;97268.46;227168;1269;22619;-77
2024/03/31 16:22:07;;;;;;;46.20;7.00;;;;;;;20.88;44.08;97271.64;227139;1269;22541;-77
2024/03/31 16:27:10;;;;;;;48.30;7.60;;;;;;;20.87;44.26;97272.36;227134;1266;22577;-77
2024/03/31 16:32:12;;;;;;;37.00;7.10;;;;;;;20.85;44.35;97269.85;227170;1269;22542;-78
2024/03/31 16:37:14;;;;;;;49.20;8.60;;;;;;;20.78;44.55;97269.04;227276;1272;22814;-77
2024/03/31 16:42:16;;;;;;;38.50;8.30;;;;;;;20.64;44.78;97276.42;227266;1272;24269;-77
2024/03/31 16:47:19;;;;;;;41.90;7.90;;;;;;;20.48;45.15;97276.42;227059;1267;22624;-76
2024/03/31 16:52:21;;;;;;;50.00;8.10;;;;;;;20.29;45.55;97280.61;227358;1269;22551;-77
2024/03/31 16:57:22;;;;;;;51.80;7.60;;;;;;;20.08;45.38;97281.02;227222;1270;24264;-77
2024/03/31 17:02:24;;;;;;;38.50;7.50;;;;;;;19.95;44.89;97288.40;227471;1269;22966;-77
2024/03/31 17:07:26;;;;;;;44.00;7.70;;;;;;;19.86;44.76;97293.70;227337;1272;22531;-77
2024/03/31 17:12:28;;;;;;;38.70;6.90;;;;;;;19.78;44.50;97293.73;227255;1266;22581;-80
2024/03/31 17:17:30;;;;;;;35.80;6.00;;;;;;;19.71;44.53;97294.40;227194;1272;22531;-76
2024/03/31 17:22:32;;;;;;;31.70;6.00;;;;;;;19.59;44.59;97293.77;227240;1272;22567;-77
2024/03/31 17:27:34;;;;;;;46.30;7.70;;;;;;;19.51;44.45;97288.24;227284;1271;25298;-77
2024/03/31 17:32:36;;;;;;;42.10;6.60;;;;;;;19.40;44.48;97296.36;227190;1270;22528;-78
2024/03/31 17:37:38;;;;;;;34.50;5.90;;;;;;;19.25;44.69;97297.98;227184;1265;22534;-78
2024/03/31 17:42:43;;;;;;;38.50;6.30;;;;;;;19.09;44.94;97295.38;227181;1272;22535;-77
2024/03/31 17:47:45;;;;;;;37.40;7.00;;;;;;;18.91;45.34;97296.04;227255;1267;22523;-78
2024/03/31 17:52:47;;;;;;;38.40;6.90;;;;;;;18.71;45.49;97294.87;227410;1272;22613;-78
2024/03/31 17:57:49;;;;;;;32.80;5.80;;;;;;;18.51;45.80;97296.29;227198;1270;22539;-77
2024/03/31 18:02:51;;;;;;;30.00;5.90;;;;;;;18.30;46.29;97287.13;227360;1266;22619;-78
2024/03/31 18:07:52;;;;;;;31.90;6.40;;;;;;;18.09;46.47;97283.36;227278;1270;22546;-78
2024/03/31 18:12:54;;;;;;;26.40;5.20;;;;;;;17.91;46.69;97286.30;227271;1272;22555;-77
2024/03/31 18:17:56;;;;;;;38.00;6.50;;;;;;;17.77;46.93;97293.92;227257;1267;22550;-77
2024/03/31 18:22:58;;;;;;;28.30;5.00;;;;;;;17.68;47.13;97292.70;227378;1268;22553;-77
2024/03/31 18:28:00;;;;;;;32.60;6.30;;;;;;;17.53;47.43;97289.29;227109;1269;22621;-78
2024/03/31 18:33:02;;;;;;;36.80;5.90;;;;;;;17.38;47.68;97288.17;227135;1272;24303;-77
2024/03/31 18:38:04;;;;;;;29.50;6.10;;;;;;;17.24;47.97;97285.88;227169;1270;23218;-77
2024/03/31 18:43:06;;;;;;;28.40;6.30;;;;;;;17.13;48.19;97288.34;227191;1270;22534;-75
2024/03/31 18:48:08;;;;;;;32.40;6.00;;;;;;;17.10;48.47;97287.90;227112;1272;25198;-77
2024/03/31 18:53:09;;;;;;;30.10;5.80;;;;;;;17.06;48.71;97285.83;227161;1270;24241;-77
2024/03/31 18:58:11;;;;;;;27.00;5.10;;;;;;;17.04;48.88;97294.05;227207;1257;22551;-78
2024/03/31 19:03:13;;;;;;;26.90;5.30;;;;;;;17.00;49.07;97296.87;227187;1271;22523;-77
2024/03/31 19:08:15;;;;;;;32.80;6.00;;;;;;;16.99;49.32;97300.27;227122;1272;22579;-77
2024/03/31 19:13:17;;;;;;;31.80;5.50;;;;;;;17.07;49.52;97305.77;227112;1270;22536;-77
2024/03/31 19:18:19;;;;;;;28.10;5.50;;;;;;;17.07;49.65;97310.10;227187;1272;22535;-77
2024/03/31 19:23:21;;;;;;;29.80;6.50;;;;;;;17.02;49.83;97309.73;227209;1267;24257;-77
2024/03/31 19:28:24;;;;;;;32.90;5.70;;;;;;;16.94;50.07;97301.09;227240;1271;22534;-77
2024/03/31 19:33:26;;;;;;;25.00;5.70;;;;;;;16.83;50.38;97299.66;227147;1269;22522;-77
2024/03/31 19:38:28;;;;;;;29.60;7.00;;;;;;;16.73;50.51;97299.82;227163;1270;22480;-77
2024/03/31 19:43:30;;;;;;;26.00;4.90;;;;;;;16.59;50.72;97299.27;227198;1270;22535;-77
2024/03/31 19:48:32;;;;;;;29.10;5.10;;;;;;;16.47;51.21;97306.86;227090;1272;22538;-77
2024/03/31 19:53:34;;;;;;;34.50;5.20;;;;;;;16.37;51.41;97315.08;227116;1270;22609;-77
2024/03/31 19:58:35;;;;;;;33.20;6.80;;;;;;;16.29;51.65;97320.17;227213;1267;22548;-77
2024/03/31 20:03:37;;;;;;;34.60;6.30;;;;;;;16.20;51.81;97330.36;227159;1269;22550;-78
2024/03/31 20:08:40;;;;;;;33.50;6.70;;;;;;;16.12;52.08;97337.20;227174;1269;24376;-78
2024/03/31 20:13:41;;;;;;;32.00;5.80;;;;;;;16.05;52.28;97344.02;227125;1269;22537;-77
2024/03/31 20:18:44;;;;;;;35.10;6.60;;;;;;;16.02;52.36;97349.23;227396;1269;25964;-77
2024/03/31 20:23:45;;;;;;;30.10;6.30;;;;;;;15.97;52.69;97354.17;227314;1264;22532;-78
2024/03/31 20:28:47;;;;;;;28.00;6.60;;;;;;;15.90;52.80;97350.28;227077;1270;22539;-77
2024/03/31 20:33:52;;;;;;;27.70;6.30;;;;;;;15.79;53.18;97346.53;227182;1272;22902;-77
2024/03/31 20:38:54;;;;;;;37.50;6.70;;;;;;;15.68;53.25;97348.97;227128;1269;22586;-76
2024/03/31 20:43:55;;;;;;;38.40;6.50;;;;;;;15.59;53.64;97349.79;227081;1270;22611;-76
2024/03/31 20:48:57;;;;;;;38.10;6.20;;;;;;;15.48;53.89;97345.16;227103;1270;22535;-77
2024/03/31 20:53:59;;;;;;;31.80;7.20;;;;;;;15.38;54.20;97337.48;227048;1269;22544;-77
2024/03/31 20:59:01;;;;;;;29.20;6.70;;;;;;;15.28;54.42;97333.45;227158;1272;22537;-75
2024/03/31 21:04:15;;;;;;;37.50;6.60;;;;;;;15.18;54.81;97320.22;227146;1272;22546;-77
2024/03/31 21:09:17;;;;;;;34.30;6.40;;;;;;;15.13;55.21;97314.91;227032;1272;22526;-77
2024/03/31 21:14:19;;;;;;;25.50;5.90;;;;;;;15.08;55.29;97308.02;227355;1270;22552;-77
2024/03/31 21:19:21;;;;;;;22.20;4.80;;;;;;;15.05;55.56;97309.19;227112;1270;22535;-77
2024/03/31 21:24:23;;;;;;;31.00;6.50;;;;;;;15.00;55.84;97315.38;227053;1272;22529;-77
2024/03/31 21:29:25;;;;;;;33.20;6.60;;;;;;;14.93;56.15;97316.91;227084;1272;22545;-78
2024/03/31 21:34:27;;;;;;;42.60;7.70;;;;;;;14.85;56.18;97321.50;227164;1269;23973;-77
2024/03/31 21:39:28;;;;;;;31.40;5.90;;;;;;;14.90;56.79;97326.56;227204;1272;22641;-77
2024/03/31 21:44:30;;;;;;;34.80;6.50;;;;;;;15.00;56.79;97326.44;227108;1266;22535;-78
2024/03/31 21:49:32;;;;;;;28.90;6.70;;;;;;;14.94;56.68;97328.67;227152;1272;22537;-77
2024/03/31 21:54:39;;;;;;;38.50;6.30;;;;;;;14.82;56.71;97317.65;227301;1270;22549;-77
2024/03/31 21:59:41;;;;;;;36.00;6.80;;;;;;;14.70;56.95;97310.88;227312;1268;22532;-77
2024/03/31 22:04:43;;;;;;;25.30;5.60;;;;;;;14.59;57.25;97306.46;227338;1269;22575;-78
2024/03/31 22:09:45;;;;;;;26.60;5.30;;;;;;;14.49;57.30;97314.11;227207;1253;22559;-78
2024/03/31 22:14:47;;;;;;;28.20;5.40;;;;;;;14.41;57.47;97311.92;227133;1272;22564;-77
2024/03/31 22:19:49;;;;;;;29.60;5.60;;;;;;;14.36;58.02;97316.38;227127;1269;22534;-78
2024/03/31 22:24:50;;;;;;;28.40;5.70;;;;;;;14.33;58.23;97319.91;227110;1270;22584;-77
2024/03/31 22:29:52;;;;;;;29.90;6.30;;;;;;;14.32;58.01;97323.49;227382;1270;22551;-77
2024/03/31 22:34:54;;;;;;;26.60;4.90;;;;;;;14.26;58.01;97310.30;227074;1270;22921;-77
2024/03/31 22:39:57;;;;;;;23.40;6.10;;;;;;;14.18;58.22;97299.31;227045;1270;22535;-77
2024/03/31 22:44:59;;;;;;;29.10;5.90;;;;;;;14.10;58.48;97300.65;227117;1248;22534;-79
2024/03/31 22:50:04;;;;;;;30.70;5.50;;;;;;;14.01;58.86;97311.42;227332;1269;23016;-76
2024/03/31 22:55:06;;;;;;;29.30;5.60;;;;;;;13.92;59.02;97320.13;227082;1272;22551;-77
2024/03/31 23:00:09;;;;;;;29.00;5.30;;;;;;;13.84;58.92;97316.98;227319;1270;22695;-76
2024/03/31 23:05:11;;;;;;;25.00;4.70;;;;;;;13.77;59.38;97319.34;227137;1270;25006;-77
2024/03/31 23:10:15;;;;;;;28.70;5.50;;;;;;;13.72;59.29;97320.64;227145;1272;22537;-77